createdAt,value
2023-02-02T00:00:38.443Z,6.62
2023-02-02T00:03:11.132Z,7.25
2023-02-02T00:05:49.924Z,9.15
2023-02-02T00:08:21.801Z,10.82
2023-02-02T00:10:52.351Z,9.20
2023-02-02T00:13:22.861Z,9.63
2023-02-02T00:15:54.789Z,9.68
2023-02-02T00:18:25.267Z,10.72
2023-02-02T00:20:55.769Z,7.30
2023-02-02T00:23:26.221Z,7.22
2023-02-02T00:25:56.671Z,8.28
2023-02-02T00:28:27.159Z,8.80
2023-02-02T00:30:57.604Z,9.23
2023-02-02T00:33:29.327Z,9.50
2023-02-02T00:35:59.883Z,9.60
2023-02-02T00:38:32.591Z,5.72
2023-02-02T00:41:03.109Z,8.25
2023-02-02T00:43:33.773Z,8.98
2023-02-02T00:46:05.586Z,8.68
2023-02-02T00:48:36.126Z,9.38
2023-02-02T00:51:06.750Z,9.58
2023-02-02T00:53:37.256Z,9.73
2023-02-02T00:56:08.003Z,9.38
2023-02-02T00:58:38.555Z,10.50
2023-02-02T01:01:18.191Z,5.58
2023-02-02T01:03:49.330Z,5.87
2023-02-02T01:06:20.088Z,8.53
2023-02-02T01:08:52.054Z,7.20
2023-02-02T01:11:22.878Z,6.70
2023-02-02T01:13:53.374Z,7.22
2023-02-02T01:16:25.065Z,8.30
2023-02-02T01:18:55.577Z,7.15
2023-02-02T01:21:26.036Z,8.75
2023-02-02T01:23:56.523Z,9.40
2023-02-02T01:26:27.053Z,7.65
2023-02-02T01:28:57.574Z,8.20
2023-02-02T01:31:28.224Z,9.93
2023-02-02T01:33:58.698Z,8.20
2023-02-02T01:36:29.229Z,8.83
2023-02-02T01:38:59.707Z,6.95
2023-02-02T01:41:31.419Z,9.23
2023-02-02T01:44:04.441Z,8.85
2023-02-02T01:46:38.016Z,9.75
2023-02-02T01:49:14.389Z,11.88
2023-02-02T01:51:57.925Z,11.30
2023-02-02T01:54:37.217Z,9.23
2023-02-02T01:57:13.229Z,9.50
2023-02-02T01:59:45.122Z,8.28
2023-02-02T02:02:15.886Z,8.33
2023-02-02T02:04:48.640Z,8.83
2023-02-02T02:07:19.272Z,7.78
2023-02-02T02:09:49.981Z,9.45
2023-02-02T02:12:20.666Z,9.33
2023-02-02T02:15:10.584Z,8.20
2023-02-02T02:17:55.762Z,9.53
2023-02-02T02:20:56.095Z,9.70
2023-02-02T02:24:02.595Z,7.92
2023-02-02T02:29:36.108Z,8.93
2023-02-02T02:32:18.529Z,8.90
2023-02-02T02:35:07.185Z,8.68
2023-02-02T02:37:49.500Z,7.83
2023-02-02T02:40:37.807Z,9.85
2023-02-02T02:43:22.620Z,7.35
2023-02-02T02:45:55.216Z,7.60
2023-02-02T02:48:26.606Z,6.15
2023-02-02T02:51:11.035Z,8.10
2023-02-02T02:53:44.940Z,7.50
2023-02-02T02:56:29.117Z,9.90
2023-02-02T02:59:12.802Z,7.57
2023-02-02T03:02:06.233Z,10.05
2023-02-02T03:04:45.867Z,7.92
2023-02-02T03:07:33.607Z,9.38
2023-02-02T03:10:12.042Z,10.35
2023-02-02T03:12:55.324Z,9.75
2023-02-02T03:15:28.081Z,8.45
2023-02-02T03:18:02.552Z,9.13
2023-02-02T03:23:08.119Z,10.70
2023-02-02T03:25:40.509Z,9.78
2023-02-02T03:28:13.858Z,10.20
2023-02-02T03:30:47.937Z,8.55
2023-02-02T03:33:21.867Z,8.23
2023-02-02T03:35:55.232Z,9.35
2023-02-02T03:38:28.444Z,7.37
2023-02-02T03:40:59.951Z,7.28
2023-02-02T03:43:31.224Z,7.55
2023-02-02T03:46:06.037Z,7.28
2023-02-02T03:48:43.175Z,8.13
2023-02-02T03:51:17.178Z,6.85
2023-02-02T03:53:51.139Z,7.65
2023-02-02T03:56:23.264Z,5.90
2023-02-02T03:58:56.298Z,6.30
2023-02-02T04:01:34.568Z,5.87
2023-02-02T04:04:07.703Z,5.20
2023-02-02T04:06:39.472Z,5.00
2023-02-02T04:09:12.248Z,6.15
2023-02-02T04:11:44.216Z,3.65
2023-02-02T04:14:16.727Z,4.87
2023-02-02T04:16:49.608Z,2.98
2023-02-02T04:19:21.912Z,3.77
2023-02-02T04:21:54.833Z,3.35
2023-02-02T04:24:28.436Z,4.12
2023-02-02T04:27:01.435Z,5.08
2023-02-02T04:29:33.944Z,3.77
2023-02-02T04:32:05.799Z,3.47
2023-02-02T04:34:38.851Z,3.75
2023-02-02T04:37:12.870Z,2.22
2023-02-02T04:39:45.139Z,2.80
2023-02-02T04:42:19.274Z,3.35
2023-02-02T04:44:52.132Z,3.37
2023-02-02T04:47:24.713Z,2.90
2023-02-02T04:49:55.977Z,2.47
2023-02-02T04:52:30.678Z,3.33
2023-02-02T04:55:05.417Z,3.15
2023-02-02T04:57:36.779Z,3.15
2023-02-02T05:00:11.355Z,2.80
2023-02-02T05:02:44.863Z,2.98
2023-02-02T05:05:17.789Z,3.45
2023-02-02T05:07:50.666Z,2.27
2023-02-02T05:10:25.757Z,3.08
2023-02-02T05:12:59.361Z,2.17
2023-02-02T05:18:04.850Z,2.35
2023-02-02T05:20:40.002Z,2.27
2023-02-02T05:23:11.046Z,2.47
2023-02-02T05:25:46.188Z,2.05
2023-02-02T05:28:21.339Z,3.07
2023-02-02T05:30:53.246Z,1.98
2023-02-02T05:33:27.055Z,2.35
2023-02-02T05:35:59.471Z,1.77
2023-02-02T05:38:31.653Z,1.72
2023-02-02T05:41:11.093Z,1.82
2023-02-02T05:43:42.350Z,1.57
2023-02-02T05:46:22.387Z,1.82
2023-02-02T05:48:59.087Z,1.92
2023-02-02T05:51:35.169Z,2.20
2023-02-02T05:56:38.388Z,3.00
2023-02-02T05:59:10.595Z,2.27
2023-02-02T06:01:42.055Z,2.37
2023-02-02T06:04:16.532Z,2.37
2023-02-02T06:06:48.951Z,1.92
2023-02-02T06:09:20.304Z,1.60
2023-02-02T06:11:52.670Z,1.60
2023-02-02T06:14:25.717Z,2.45
2023-02-02T06:16:57.765Z,2.45
2023-02-02T06:19:29.689Z,2.45
2023-02-02T06:22:01.759Z,2.67
2023-02-02T06:24:35.464Z,2.05
2023-02-02T06:27:08.504Z,2.85
2023-02-02T06:29:42.673Z,1.07
2023-02-02T06:32:14.382Z,1.15
2023-02-02T06:34:47.631Z,1.52
2023-02-02T06:37:20.398Z,1.60
2023-02-02T06:39:56.556Z,2.45
2023-02-02T06:42:31.809Z,2.15
2023-02-02T06:45:06.577Z,3.22
2023-02-02T06:47:40.213Z,2.37
2023-02-02T06:50:13.856Z,1.87
2023-02-02T06:52:54.105Z,1.75
2023-02-02T06:55:26.647Z,1.20
2023-02-02T06:58:06.654Z,1.25
2023-02-02T07:00:39.113Z,2.17
2023-02-02T07:03:13.940Z,2.90
2023-02-02T07:05:45.485Z,2.00
2023-02-02T07:08:20.348Z,1.72
2023-02-02T07:11:13.509Z,2.25
2023-02-02T07:13:27.477Z,2.17
2023-02-02T07:16:00.635Z,1.62
2023-02-02T07:18:33.152Z,2.85
2023-02-02T07:21:08.852Z,2.35
2023-02-02T07:23:42.802Z,2.20
2023-02-02T07:26:14.876Z,2.15
2023-02-02T07:28:47.399Z,3.47
2023-02-02T07:31:23.881Z,2.35
2023-02-02T07:33:55.556Z,2.42
2023-02-02T07:36:27.441Z,2.47
2023-02-02T07:38:59.918Z,3.10
2023-02-02T07:41:30.781Z,2.95
2023-02-02T07:44:01.877Z,2.10
2023-02-02T07:46:32.827Z,1.77
2023-02-02T07:49:03.393Z,2.58
2023-02-02T07:51:33.887Z,3.00
2023-02-02T07:54:04.430Z,3.75
2023-02-02T07:56:35.260Z,1.98
2023-02-02T07:59:05.719Z,2.37
2023-02-02T08:01:36.243Z,1.77
2023-02-02T08:04:06.830Z,2.35
2023-02-02T08:06:41.563Z,2.70
2023-02-02T08:09:12.233Z,2.33
2023-02-02T08:11:43.870Z,2.35
2023-02-02T08:14:14.966Z,2.92
2023-02-02T08:16:45.438Z,2.65
2023-02-02T08:19:15.911Z,2.70
2023-02-02T08:21:46.404Z,3.37
2023-02-02T08:24:18.039Z,2.80
2023-02-02T08:26:48.501Z,3.55
2023-02-02T08:29:18.970Z,2.50
2023-02-02T08:31:50.601Z,3.27
2023-02-02T08:34:21.099Z,4.45
2023-02-02T08:36:51.542Z,4.65
2023-02-02T08:39:22.811Z,3.05
2023-02-02T08:41:54.718Z,2.83
2023-02-02T08:44:26.976Z,2.55
2023-02-02T08:46:59.165Z,2.55
2023-02-02T08:49:30.912Z,2.67
2023-02-02T08:52:01.463Z,2.58
2023-02-02T08:54:31.938Z,2.50
2023-02-02T08:57:02.401Z,2.55
2023-02-02T08:59:32.855Z,3.40
2023-02-02T09:02:03.283Z,2.72
2023-02-02T09:04:33.755Z,2.15
2023-02-02T09:07:05.317Z,1.87
2023-02-02T09:09:35.803Z,1.98
2023-02-02T09:12:06.360Z,2.20
2023-02-02T09:14:36.925Z,1.57
2023-02-02T09:17:07.389Z,1.95
2023-02-02T09:19:37.863Z,2.30
2023-02-02T09:22:08.339Z,1.90
2023-02-02T09:24:39.742Z,4.42
2023-02-02T09:27:10.215Z,2.27
2023-02-02T09:29:40.779Z,2.80
2023-02-02T09:32:11.467Z,1.87
2023-02-02T09:34:41.966Z,2.50
2023-02-02T09:37:12.440Z,1.98
2023-02-02T09:39:43.023Z,2.47
2023-02-02T09:42:34.493Z,1.32
2023-02-02T09:45:20.034Z,3.00
2023-02-02T09:47:55.824Z,2.72
2023-02-02T09:50:32.251Z,2.00
2023-02-02T09:53:14.272Z,2.58
2023-02-02T09:55:47.626Z,2.42
2023-02-02T09:58:24.141Z,1.50
2023-02-02T10:01:15.762Z,13.85
2023-02-02T10:04:01.736Z,4.97
2023-02-02T10:06:38.147Z,5.08
2023-02-02T10:09:28.097Z,3.55
2023-02-02T10:12:08.828Z,3.40
2023-02-02T10:14:42.567Z,3.80
2023-02-02T10:17:44.712Z,2.12
2023-02-02T10:20:34.949Z,2.80
2023-02-02T10:23:29.512Z,1.52
2023-02-02T10:26:02.889Z,2.35
2023-02-02T10:28:57.324Z,2.35
2023-02-02T10:31:33.705Z,1.70
2023-02-02T10:34:23.654Z,1.80
2023-02-02T10:37:13.310Z,1.50
2023-02-02T10:40:01.632Z,1.72
2023-02-02T10:42:53.064Z,1.32
2023-02-02T10:45:24.051Z,1.37
2023-02-02T10:47:54.488Z,0.90
2023-02-02T10:50:26.238Z,2.87
2023-02-02T10:52:59.835Z,1.98
2023-02-02T10:55:44.823Z,3.35
2023-02-02T10:58:18.258Z,4.00
2023-02-02T11:00:54.806Z,2.45
2023-02-02T11:03:28.554Z,1.90
2023-02-02T11:06:19.733Z,1.55
2023-02-02T11:08:59.925Z,2.55
2023-02-02T11:11:36.278Z,2.00
2023-02-02T11:14:12.373Z,3.67
2023-02-02T11:16:46.090Z,2.17
2023-02-02T11:19:22.571Z,2.17
2023-02-02T11:21:57.778Z,1.52
2023-02-02T11:24:50.413Z,1.87
2023-02-02T11:27:29.481Z,2.10
2023-02-02T11:30:02.876Z,3.02
2023-02-02T11:32:35.453Z,4.10
2023-02-02T11:35:11.281Z,3.72
2023-02-02T11:37:56.470Z,2.08
2023-02-02T11:40:36.067Z,1.65
2023-02-02T11:43:09.679Z,2.00
2023-02-02T11:45:42.932Z,2.15
2023-02-02T11:48:22.051Z,2.05
2023-02-02T11:50:55.062Z,3.35
2023-02-02T11:53:31.364Z,2.00
2023-02-02T11:56:04.684Z,2.95
2023-02-02T11:58:52.971Z,3.02
2023-02-02T12:01:26.376Z,1.67
2023-02-02T12:03:59.621Z,2.60
2023-02-02T12:06:41.147Z,2.47
2023-02-02T12:09:17.159Z,2.35
2023-02-02T12:12:05.632Z,2.42
2023-02-02T12:14:41.772Z,2.62
2023-02-02T12:17:33.248Z,2.50
2023-02-02T12:20:25.026Z,2.55
2023-02-02T12:23:17.901Z,3.52
2023-02-02T12:26:10.635Z,2.05
2023-02-02T12:28:50.155Z,3.27
2023-02-02T12:31:29.618Z,3.20
2023-02-02T12:34:09.551Z,2.37
2023-02-02T12:37:11.433Z,3.45
2023-02-02T12:40:13.749Z,4.08
2023-02-02T12:42:53.391Z,2.55
2023-02-02T12:45:41.855Z,3.45
2023-02-02T12:48:18.026Z,2.92
2023-02-02T12:50:54.177Z,1.98
2023-02-02T12:53:42.481Z,1.82
2023-02-02T12:56:29.221Z,2.52
2023-02-02T12:59:14.543Z,3.50
2023-02-02T13:01:53.550Z,2.60
2023-02-02T13:04:45.183Z,2.70
2023-02-02T13:07:30.555Z,2.17
2023-02-02T13:10:08.505Z,2.15
2023-02-02T13:12:46.083Z,3.58
2023-02-02T13:15:23.791Z,3.72
2023-02-02T13:17:56.141Z,4.03
2023-02-02T13:20:39.254Z,4.22
2023-02-02T13:23:32.404Z,4.85
2023-02-02T13:26:19.259Z,3.77
2023-02-02T13:29:00.127Z,4.03
2023-02-02T13:31:37.113Z,4.75
2023-02-02T13:34:20.690Z,4.28
2023-02-02T13:37:01.682Z,4.65
2023-02-02T13:39:43.722Z,8.58
2023-02-02T13:42:38.125Z,5.67
2023-02-02T13:45:20.414Z,5.40
2023-02-02T13:47:54.946Z,4.22
2023-02-02T13:50:29.557Z,4.20
2023-02-02T13:53:27.175Z,3.42
2023-02-02T13:56:22.008Z,2.60
2023-02-02T13:58:55.391Z,3.15
2023-02-02T14:01:26.890Z,4.10
2023-02-02T14:04:00.790Z,3.60
2023-02-02T14:06:34.177Z,4.22
2023-02-02T14:09:08.223Z,2.87
2023-02-02T14:11:45.500Z,3.22
2023-02-02T14:14:34.796Z,2.73
2023-02-02T14:17:10.881Z,2.25
2023-02-02T14:19:47.057Z,2.90
2023-02-02T14:22:20.336Z,2.95
2023-02-02T14:24:55.137Z,2.72
2023-02-02T14:27:34.967Z,2.67
2023-02-02T14:30:14.383Z,3.50
2023-02-02T14:32:46.068Z,4.55
2023-02-02T14:35:28.438Z,3.98
2023-02-02T14:38:01.995Z,4.00
2023-02-02T14:40:44.076Z,3.98
2023-02-02T14:43:43.669Z,2.85
2023-02-02T14:46:25.905Z,5.78
2023-02-02T14:49:00.888Z,5.35
2023-02-02T14:51:36.052Z,4.75
2023-02-02T14:54:11.179Z,4.33
2023-02-02T14:56:50.715Z,3.85
2023-02-02T14:59:27.683Z,3.83
2023-02-02T15:02:02.652Z,4.22
2023-02-02T15:04:33.264Z,3.83
2023-02-02T15:07:23.557Z,3.58
2023-02-02T15:09:56.809Z,3.42
2023-02-02T15:12:46.542Z,3.25
2023-02-02T15:15:30.306Z,3.62
2023-02-02T15:18:11.139Z,5.10
2023-02-02T15:20:50.377Z,4.80
2023-02-02T15:23:35.790Z,4.58
2023-02-02T15:26:11.947Z,5.12
2023-02-02T15:28:55.992Z,4.17
2023-02-02T15:31:35.249Z,3.87
2023-02-02T15:34:17.739Z,3.25
2023-02-02T15:36:51.697Z,3.83
2023-02-02T15:39:37.316Z,2.85
2023-02-02T15:42:30.563Z,3.25
2023-02-02T15:45:01.276Z,3.27
2023-02-02T15:47:37.324Z,3.35
2023-02-02T15:50:22.104Z,3.08
2023-02-02T15:52:54.960Z,3.95
2023-02-02T15:55:34.675Z,2.60
2023-02-02T15:58:06.870Z,2.42
2023-02-02T16:00:38.327Z,3.37
2023-02-02T16:03:14.970Z,2.08
2023-02-02T16:05:48.397Z,4.55
2023-02-02T16:08:21.748Z,2.90
2023-02-02T16:11:08.312Z,3.65
2023-02-02T16:13:42.843Z,3.87
2023-02-02T16:16:28.197Z,5.10
2023-02-02T16:19:07.593Z,6.62
2023-02-02T16:21:41.079Z,5.72
2023-02-02T16:24:23.394Z,4.25
2023-02-02T16:26:56.755Z,4.03
2023-02-02T16:29:28.422Z,3.92
2023-02-02T16:31:59.211Z,4.85
2023-02-02T16:34:46.897Z,4.70
2023-02-02T16:37:28.868Z,5.92
2023-02-02T16:40:21.321Z,4.70
2023-02-02T16:43:09.991Z,3.75
2023-02-02T16:45:59.643Z,3.90
2023-02-02T16:48:36.144Z,4.03
2023-02-02T16:51:21.780Z,4.33
2023-02-02T16:54:10.340Z,6.70
2023-02-02T16:56:44.055Z,5.72
2023-02-02T16:59:26.681Z,5.20
2023-02-02T17:02:00.282Z,5.08
2023-02-02T17:04:33.406Z,6.25
2023-02-02T17:07:09.628Z,6.37
2023-02-02T17:09:45.386Z,6.05
2023-02-02T17:12:33.203Z,4.53
2023-02-02T17:15:04.083Z,7.25
2023-02-02T17:17:35.836Z,4.55
2023-02-02T17:20:07.141Z,5.45
2023-02-02T17:22:44.699Z,4.42
2023-02-02T17:25:20.906Z,5.00
2023-02-02T17:27:51.495Z,5.00
2023-02-02T17:30:22.431Z,4.30
2023-02-02T17:32:53.023Z,4.75
2023-02-02T17:35:26.904Z,5.10
2023-02-02T17:37:59.121Z,5.30
2023-02-02T17:40:31.920Z,4.83
2023-02-02T17:43:03.282Z,5.10
2023-02-02T17:45:38.817Z,7.20
2023-02-02T17:48:12.440Z,6.22
2023-02-02T17:50:44.206Z,7.62
2023-02-02T17:53:16.891Z,6.80
2023-02-02T17:55:49.894Z,7.55
2023-02-02T17:58:20.360Z,7.25
2023-02-02T18:00:54.940Z,6.30
2023-02-02T18:03:35.490Z,7.60
2023-02-02T18:06:06.174Z,6.87
2023-02-02T18:08:36.676Z,6.47
2023-02-02T18:11:08.305Z,7.60
2023-02-02T18:13:38.804Z,7.62
2023-02-02T18:16:10.673Z,5.58
2023-02-02T18:18:41.804Z,6.05
2023-02-02T18:21:14.317Z,4.53
2023-02-02T18:23:46.279Z,5.45
2023-02-02T18:26:21.889Z,3.85
2023-02-02T18:28:52.467Z,2.92
2023-02-02T18:31:25.565Z,3.35
2023-02-02T18:33:56.211Z,3.05
2023-02-02T18:36:28.200Z,3.45
2023-02-02T18:38:58.679Z,3.50
2023-02-02T18:41:29.140Z,4.20
2023-02-02T18:43:59.591Z,3.35
2023-02-02T18:46:31.651Z,3.87
2023-02-02T18:49:02.166Z,3.27
2023-02-02T18:51:35.852Z,3.40
2023-02-02T18:54:07.549Z,3.55
2023-02-02T18:56:41.905Z,3.85
2023-02-02T18:59:12.747Z,4.62
2023-02-02T19:01:44.100Z,4.47
2023-02-02T19:04:14.657Z,5.75
2023-02-02T19:07:04.897Z,5.17
2023-02-02T19:09:38.347Z,6.00
2023-02-02T19:12:16.659Z,4.92
2023-02-02T19:14:47.458Z,3.83
2023-02-02T19:17:22.520Z,4.62
2023-02-02T19:19:55.660Z,4.20
2023-02-02T19:22:28.300Z,4.25
2023-02-02T19:24:59.574Z,4.65
2023-02-02T19:27:31.927Z,5.47
2023-02-02T19:30:05.840Z,4.78
2023-02-02T19:32:35.275Z,6.08
2023-02-02T19:35:08.734Z,4.58
2023-02-02T19:37:42.218Z,4.25
2023-02-02T19:40:15.653Z,3.92
2023-02-02T19:42:49.276Z,3.58
2023-02-02T19:45:31.858Z,4.78
2023-02-02T19:48:15.765Z,4.65
2023-02-02T19:50:47.375Z,3.83
2023-02-02T19:53:39.120Z,5.10
2023-02-02T19:56:30.490Z,4.35
2023-02-02T19:59:01.111Z,4.22
2023-02-02T20:01:35.911Z,3.40
2023-02-02T20:04:10.565Z,5.75
2023-02-02T20:06:56.688Z,5.25
2023-02-02T20:09:20.540Z,3.77
2023-02-02T20:11:55.893Z,3.77
2023-02-02T20:17:04.137Z,3.87
2023-02-02T20:19:40.572Z,3.80
2023-02-02T20:22:29.435Z,4.12
2023-02-02T20:25:05.821Z,4.25
2023-02-02T20:27:38.882Z,4.25
2023-02-02T20:30:24.865Z,3.52
2023-02-02T20:33:02.488Z,4.55
2023-02-02T20:35:38.795Z,4.70
2023-02-02T20:38:24.448Z,4.17
2023-02-02T20:40:54.919Z,4.10
2023-02-02T20:43:25.612Z,6.55
2023-02-02T20:45:56.195Z,8.45
2023-02-02T20:48:27.855Z,11.53
2023-02-02T20:50:58.548Z,13.25
2023-02-02T20:53:29.129Z,10.25
2023-02-02T20:56:01.392Z,9.43
2023-02-02T20:58:32.255Z,8.80
2023-02-02T21:01:04.368Z,7.20
2023-02-02T21:03:34.929Z,7.92
2023-02-02T21:06:05.465Z,6.22
2023-02-02T21:08:35.964Z,6.15
2023-02-02T21:11:06.635Z,6.20
2023-02-02T21:13:37.185Z,7.30
2023-02-02T21:16:08.409Z,7.22
2023-02-02T21:18:40.393Z,7.03
2023-02-02T21:21:14.484Z,6.92
2023-02-02T21:23:47.637Z,10.43
2023-02-02T21:26:22.465Z,13.05
2023-02-02T21:28:53.171Z,12.55
2023-02-02T21:31:24.074Z,10.60
2023-02-02T21:33:56.237Z,10.80
2023-02-02T21:36:39.765Z,8.35
2023-02-02T21:39:16.845Z,8.85
2023-02-02T21:41:47.372Z,8.98
2023-02-02T21:44:20.739Z,9.70
2023-02-02T21:46:53.536Z,10.50
2023-02-02T21:49:29.878Z,8.18
2023-02-02T21:52:00.844Z,7.37
2023-02-02T21:54:34.154Z,5.62
2023-02-02T21:57:06.448Z,7.78
2023-02-02T21:59:37.758Z,6.55
2023-02-02T22:02:23.498Z,6.83
2023-02-02T22:07:26.450Z,5.87
2023-02-02T22:09:57.192Z,7.83
2023-02-02T22:12:28.718Z,7.15
2023-02-02T22:15:02.018Z,6.17
2023-02-02T22:17:44.628Z,5.80
2023-02-02T22:20:21.163Z,6.72
2023-02-02T22:22:53.131Z,5.53
2023-02-02T22:25:29.591Z,5.80
2023-02-02T22:28:01.924Z,6.70
2023-02-02T22:30:38.367Z,4.70
2023-02-02T22:33:11.598Z,5.50
2023-02-02T22:35:43.046Z,7.08
2023-02-02T22:38:19.954Z,6.00
2023-02-02T22:40:51.727Z,7.50
2023-02-02T22:43:23.186Z,7.53
2023-02-02T22:45:55.007Z,7.58
2023-02-02T22:48:25.482Z,8.98
2023-02-02T22:50:55.951Z,7.30
2023-02-02T22:53:26.425Z,6.70
2023-02-02T22:55:57.069Z,7.55
2023-02-02T22:58:28.715Z,6.80
2023-02-02T23:00:59.213Z,7.05
2023-02-02T23:03:30.009Z,7.35
2023-02-02T23:06:00.487Z,6.83
2023-02-02T23:08:31.008Z,6.87
2023-02-02T23:11:01.675Z,5.75
2023-02-02T23:13:32.146Z,6.20
2023-02-02T23:16:02.751Z,5.95
2023-02-02T23:18:33.361Z,6.03
2023-02-02T23:21:03.815Z,5.05
2023-02-02T23:23:34.325Z,5.87
2023-02-02T23:26:05.970Z,5.80
2023-02-02T23:28:36.430Z,6.22
2023-02-02T23:31:07.384Z,6.17
2023-02-02T23:33:37.867Z,7.22
2023-02-02T23:36:08.803Z,6.17
2023-02-02T23:38:39.348Z,7.40
2023-02-02T23:41:09.814Z,6.22
